createdAt,value
2022-09-05T03:17:14.472Z,1.10
2022-09-05T03:20:12.774Z,1.00
2022-09-05T03:23:13.607Z,1.10
2022-09-05T03:26:35.838Z,1.08
2022-09-05T03:29:43.894Z,1.20
2022-09-05T03:32:49.089Z,1.20
2022-09-05T03:36:18.985Z,1.52
2022-09-05T03:39:24.603Z,1.52
2022-09-05T03:42:14.586Z,1.00
2022-09-05T03:45:00.533Z,1.20
2022-09-05T03:48:28.695Z,1.30
2022-09-05T03:57:07.416Z,1.00
2022-09-05T03:57:19.763Z,1.20
2022-09-05T03:58:02.113Z,1.55
2022-09-05T04:00:48.613Z,1.20
2022-09-05T04:08:08.060Z,1.13
2022-09-05T04:08:13.867Z,1.15
2022-09-05T04:09:43.109Z,1.27
2022-09-05T04:12:16.965Z,1.20
2022-09-05T04:14:50.962Z,1.10
2022-09-05T04:17:28.587Z,1.20
2022-09-05T04:20:03.961Z,1.25
2022-09-05T04:22:42.347Z,1.50
2022-09-05T04:25:17.596Z,1.50
2022-09-05T04:27:53.953Z,2.15
2022-09-05T04:30:38.531Z,1.95
2022-09-05T04:33:22.215Z,1.60
2022-09-05T04:36:18.973Z,1.80
2022-09-05T04:38:47.697Z,1.60
2022-09-05T04:41:17.280Z,1.80
2022-09-05T04:43:51.303Z,1.83
2022-09-05T04:46:24.696Z,2.35
2022-09-05T04:49:02.008Z,1.50
2022-09-05T04:52:07.497Z,1.73
2022-09-05T04:54:44.052Z,2.08
2022-09-05T04:57:25.090Z,1.70
2022-09-05T05:05:42.077Z,2.00
2022-09-05T05:06:12.589Z,2.05
2022-09-05T05:06:17.936Z,2.08
2022-09-05T05:08:52.239Z,1.90
2022-09-05T05:17:29.890Z,1.90
2022-09-05T05:17:59.476Z,1.65
2022-09-05T05:18:09.409Z,1.85
2022-09-05T05:20:42.044Z,1.65
2022-09-05T05:23:17.150Z,1.90
2022-09-05T05:25:57.417Z,3.42
2022-09-05T05:28:38.146Z,2.83
2022-09-05T05:31:14.039Z,2.10
2022-09-05T05:33:45.907Z,2.33
2022-09-05T05:36:19.468Z,2.05
2022-09-05T05:38:53.651Z,2.00
2022-09-05T05:41:28.301Z,2.03
2022-09-05T05:43:57.791Z,1.58
2022-09-05T05:46:35.996Z,1.77
2022-09-05T05:49:46.042Z,1.50
2022-09-05T05:52:35.452Z,1.63
2022-09-05T05:55:51.487Z,2.20
2022-09-05T05:58:34.575Z,1.83
2022-09-05T06:01:46.277Z,1.60
2022-09-05T06:05:04.124Z,1.75
2022-09-05T06:08:01.199Z,2.38
2022-09-05T06:14:57.014Z,2.78
2022-09-05T06:14:59.173Z,2.30
2022-09-05T06:17:36.846Z,1.67
2022-09-05T06:22:10.528Z,1.70
2022-09-05T06:24:10.706Z,1.95
2022-09-05T06:27:12.558Z,2.00
2022-09-05T06:29:55.717Z,2.22
2022-09-05T06:32:37.543Z,1.40
2022-09-05T06:35:30.923Z,2.42
2022-09-05T06:38:30.807Z,1.70
2022-09-05T06:41:13.563Z,1.70
2022-09-05T06:44:15.774Z,1.50
2022-09-05T06:46:55.119Z,1.33
2022-09-05T06:49:54.990Z,1.50
2022-09-05T06:53:14.417Z,1.27
2022-09-05T06:56:12.674Z,1.40
2022-09-05T06:59:26.967Z,1.40
2022-09-05T07:02:07.661Z,1.15
2022-09-05T07:05:24.838Z,1.48
2022-09-05T07:07:40.337Z,1.30
2022-09-05T07:10:37.281Z,1.30
2022-09-05T07:13:15.288Z,1.10
2022-09-05T07:15:55.695Z,1.30
2022-09-05T07:18:31.749Z,1.17
2022-09-05T07:21:17.370Z,1.00
2022-09-05T07:24:09.291Z,1.08
2022-09-05T07:26:52.662Z,1.30
2022-09-05T07:29:29.987Z,1.05
2022-09-05T07:32:00.630Z,1.75
2022-09-05T07:34:32.073Z,1.10
2022-09-05T07:37:15.859Z,1.42
2022-09-05T07:39:51.620Z,0.82
2022-09-05T07:42:25.948Z,0.90
2022-09-05T07:44:58.012Z,0.70
2022-09-05T07:47:31.580Z,0.80
2022-09-05T07:52:33.954Z,1.00
2022-09-05T07:56:54.031Z,1.00
2022-09-05T07:57:04.124Z,0.88
2022-09-05T07:58:49.907Z,1.00
2022-09-05T08:01:21.370Z,0.70
2022-09-05T08:04:02.487Z,0.90
2022-09-05T08:07:14.366Z,0.80
2022-09-05T08:10:09.365Z,0.60
2022-09-05T08:12:28.043Z,0.88
2022-09-05T08:15:10.301Z,0.70
2022-09-05T08:17:58.710Z,0.70
2022-09-05T08:20:33.528Z,0.70
2022-09-05T08:23:12.194Z,0.50
2022-09-05T08:25:57.638Z,1.00
2022-09-05T08:28:33.399Z,0.65
2022-09-05T08:31:12.830Z,0.60
2022-09-05T08:33:42.079Z,0.85
2022-09-05T08:36:17.296Z,0.60
2022-09-05T08:38:47.721Z,0.63
2022-09-05T08:41:23.724Z,0.57
2022-09-05T08:46:47.430Z,0.60
2022-09-05T08:47:21.549Z,0.50
2022-09-05T08:50:18.503Z,0.55
2022-09-05T08:52:58.396Z,0.52
2022-09-05T08:55:41.191Z,0.95
2022-09-05T08:58:47.589Z,0.70
2022-09-05T09:01:27.667Z,0.63
2022-09-05T09:04:14.141Z,0.40
2022-09-05T09:07:12.312Z,0.40
2022-09-05T09:10:07.226Z,0.52
2022-09-05T09:13:16.484Z,0.57
2022-09-05T09:15:56.792Z,0.68
2022-09-05T09:18:39.356Z,0.73
2022-09-05T09:21:25.280Z,0.65
2022-09-05T09:24:01.771Z,0.65
2022-09-05T09:26:34.212Z,0.50
2022-09-05T09:29:07.136Z,2.42
2022-09-05T09:32:06.820Z,5.05
2022-09-05T09:34:55.580Z,0.80
2022-09-05T09:38:06.971Z,0.52
2022-09-05T09:41:00.627Z,1.98
2022-09-05T09:43:40.347Z,0.60
2022-09-05T09:46:35.824Z,0.50
2022-09-05T09:49:37.795Z,0.60
2022-09-05T09:52:27.492Z,0.40
2022-09-05T09:55:41.114Z,0.95
2022-09-05T09:58:40.819Z,0.50
2022-09-05T10:01:36.454Z,0.60
2022-09-05T10:10:36.225Z,0.73
2022-09-05T10:10:46.526Z,0.50
2022-09-05T10:14:50.725Z,0.50
2022-09-05T10:17:36.827Z,0.70
2022-09-05T10:20:32.560Z,0.60
2022-09-05T10:23:34.283Z,0.88
2022-09-05T10:26:38.604Z,0.68
2022-09-05T10:29:36.760Z,0.80
2022-09-05T10:33:09.129Z,0.70
2022-09-05T10:35:16.996Z,0.60
2022-09-05T10:37:56.257Z,0.70
2022-09-05T10:40:27.798Z,0.82
2022-09-05T10:43:02.618Z,1.67
2022-09-05T10:45:41.845Z,0.70
2022-09-05T10:48:16.463Z,1.10
2022-09-05T10:50:48.902Z,0.50
2022-09-05T10:53:38.882Z,0.40
2022-09-05T10:56:14.918Z,0.47
2022-09-05T11:01:55.965Z,0.60
2022-09-05T11:02:26.777Z,0.57
2022-09-05T11:05:03.435Z,0.70
2022-09-05T11:07:41.058Z,0.50
2022-09-05T11:10:17.553Z,0.60
2022-09-05T11:13:08.618Z,0.50
2022-09-05T11:16:03.414Z,0.60
2022-09-05T11:18:57.198Z,0.68
2022-09-05T11:21:46.119Z,1.60
2022-09-05T11:24:35.466Z,0.90
2022-09-05T11:27:24.878Z,2.95
2022-09-05T11:29:58.406Z,2.03
2022-09-05T11:38:43.983Z,0.55
2022-09-05T11:39:48.207Z,1.25
2022-09-05T11:40:24.867Z,0.73
2022-09-05T11:42:11.012Z,1.45
2022-09-05T11:45:10.310Z,0.77
2022-09-05T11:48:18.935Z,1.05
2022-09-05T11:51:16.300Z,0.50
2022-09-05T11:54:26.717Z,0.50
2022-09-05T11:57:33.167Z,0.60
2022-09-05T12:00:31.187Z,0.60
2022-09-05T12:04:00.286Z,0.43
2022-09-05T12:06:30.788Z,0.80
2022-09-05T12:09:06.464Z,0.60
2022-09-05T12:11:52.277Z,0.50
2022-09-05T12:14:39.545Z,0.50
2022-09-05T12:17:34.994Z,0.77
2022-09-05T12:20:16.937Z,0.70
2022-09-05T12:22:54.095Z,0.70
2022-09-05T12:27:35.863Z,0.70
2022-09-05T12:29:32.717Z,2.50
2022-09-05T12:33:40.771Z,1.17
2022-09-05T12:36:06.950Z,0.98
2022-09-05T12:40:38.200Z,0.80
2022-09-05T12:41:37.080Z,0.52
2022-09-05T12:44:19.341Z,0.60
2022-09-05T12:46:26.402Z,0.57
2022-09-05T12:49:07.400Z,0.47
2022-09-05T12:51:44.980Z,0.60
2022-09-05T12:54:33.680Z,0.57
2022-09-05T13:00:43.865Z,0.93
2022-09-05T13:03:13.607Z,2.20
2022-09-05T13:03:28.791Z,1.15
2022-09-05T13:06:02.295Z,0.90
2022-09-05T13:08:59.116Z,0.60
2022-09-05T13:14:56.311Z,0.60
2022-09-05T13:14:58.833Z,0.45
2022-09-05T13:17:18.121Z,0.57
2022-09-05T13:19:57.621Z,0.70
2022-09-05T13:22:31.643Z,0.70
2022-09-05T13:25:08.625Z,0.88
2022-09-05T13:27:47.902Z,0.90
2022-09-05T13:33:00.387Z,0.60
2022-09-05T13:38:15.897Z,0.70
2022-09-05T13:38:19.750Z,1.30
2022-09-05T13:39:06.313Z,0.40
2022-09-05T13:41:38.114Z,0.52
2022-09-05T13:44:26.536Z,0.90
2022-09-05T13:47:00.869Z,0.80
2022-09-05T13:49:38.651Z,0.50
2022-09-05T13:52:26.433Z,0.80
2022-09-05T13:55:11.010Z,0.80
2022-09-05T13:57:46.973Z,0.80
2022-09-05T14:00:52.160Z,0.70
2022-09-05T14:03:54.923Z,2.00
2022-09-05T14:10:06.671Z,1.38
2022-09-05T14:12:42.465Z,0.93
2022-09-05T14:15:33.325Z,1.27
2022-09-05T14:18:20.561Z,1.88
2022-09-05T14:21:15.814Z,1.40
2022-09-05T14:23:56.056Z,1.02
2022-09-05T14:26:32.008Z,0.90
2022-09-05T14:29:07.347Z,0.70
2022-09-05T14:37:35.121Z,0.93
2022-09-05T14:37:51.597Z,0.90
2022-09-05T14:38:09.480Z,0.85
2022-09-05T14:41:33.394Z,0.95
2022-09-05T14:44:37.827Z,0.60
2022-09-05T14:47:34.896Z,0.70
2022-09-05T14:50:29.421Z,0.70
2022-09-05T14:56:59.741Z,0.70
2022-09-05T15:02:39.764Z,0.60
2022-09-05T15:02:58.675Z,0.85
2022-09-05T15:04:46.059Z,0.80
2022-09-05T15:07:21.422Z,0.90
2022-09-05T15:12:16.260Z,0.70
2022-09-05T15:13:00.608Z,0.60
2022-09-05T15:15:31.942Z,0.50
2022-09-05T15:18:06.561Z,0.65
2022-09-05T15:20:38.945Z,0.60
2022-09-05T15:23:16.637Z,0.70
2022-09-05T15:26:01.089Z,0.50
2022-09-05T15:28:37.511Z,0.50
2022-09-05T15:31:10.744Z,0.45
2022-09-05T15:33:41.124Z,0.50
2022-09-05T15:36:13.652Z,0.50
2022-09-05T15:38:56.094Z,0.85
2022-09-05T15:41:26.552Z,0.52
2022-09-05T15:44:00.127Z,0.50
2022-09-05T15:46:48.775Z,0.60
2022-09-05T15:49:37.083Z,0.60
2022-09-05T15:52:29.441Z,0.60
2022-09-05T15:55:10.187Z,0.60
2022-09-05T15:57:41.724Z,0.70
2022-09-05T16:00:39.219Z,0.52
2022-09-05T16:07:32.860Z,0.75
2022-09-05T16:10:45.940Z,0.82
2022-09-05T16:10:46.539Z,0.93
2022-09-05T16:12:48.987Z,0.65
2022-09-05T16:19:44.626Z,0.70
2022-09-05T16:23:32.505Z,1.00
2022-09-05T16:23:34.075Z,0.70
2022-09-05T16:24:59.707Z,1.00
2022-09-05T16:27:52.459Z,0.70
2022-09-05T16:30:31.724Z,0.77
2022-09-05T16:33:06.298Z,0.93
2022-09-05T16:35:38.067Z,0.90
2022-09-05T16:38:25.850Z,0.90
2022-09-05T16:41:24.782Z,0.60
2022-09-05T16:43:56.320Z,0.60
2022-09-05T16:46:31.456Z,0.57
2022-09-05T16:49:12.075Z,0.70
2022-09-05T16:51:50.163Z,0.60
2022-09-05T16:54:25.737Z,0.55
2022-09-05T16:57:01.436Z,1.10
2022-09-05T16:59:31.731Z,0.50
2022-09-05T17:02:07.887Z,0.80
2022-09-05T17:05:08.988Z,0.80
2022-09-05T17:07:56.899Z,1.08
2022-09-05T17:10:28.074Z,0.75
2022-09-05T17:12:57.990Z,0.80
2022-09-05T17:15:29.636Z,0.77
2022-09-05T17:18:20.876Z,0.80
2022-09-05T17:20:58.005Z,1.23
2022-09-05T17:29:03.319Z,1.00
2022-09-05T17:29:36.097Z,1.00
2022-09-05T17:32:48.424Z,0.90
2022-09-05T17:35:42.541Z,0.82
2022-09-05T17:38:34.723Z,1.20
2022-09-05T17:41:31.523Z,2.15
2022-09-05T17:44:07.695Z,1.70
2022-09-05T17:46:47.270Z,1.20
2022-09-05T17:49:40.472Z,1.40
2022-09-05T17:52:20.858Z,1.10
2022-09-05T17:54:52.396Z,1.13
2022-09-05T17:57:41.372Z,1.10
2022-09-05T18:00:49.547Z,0.90
2022-09-05T18:04:16.700Z,0.90
2022-09-05T18:06:59.474Z,1.20
2022-09-05T18:09:58.976Z,1.20
2022-09-05T18:13:31.030Z,0.80
2022-09-05T18:16:10.816Z,1.10
2022-09-05T18:19:33.702Z,1.50
2022-09-05T18:21:48.213Z,0.90
2022-09-05T18:24:33.348Z,1.10
2022-09-05T18:28:03.114Z,0.80
2022-09-05T18:30:12.011Z,1.10
2022-09-05T18:32:45.075Z,1.40
2022-09-05T18:35:36.714Z,1.52
2022-09-05T18:38:52.145Z,2.30
2022-09-05T18:41:22.079Z,1.10
2022-09-05T18:44:12.265Z,1.27
2022-09-05T18:46:46.826Z,1.15
2022-09-05T18:50:25.965Z,1.30
2022-09-05T18:52:14.666Z,1.27
2022-09-05T18:54:44.597Z,1.38
2022-09-05T18:57:31.263Z,1.30
2022-09-05T19:00:10.214Z,1.73
2022-09-05T19:02:51.541Z,1.60
2022-09-05T19:05:38.869Z,1.50
2022-09-05T19:08:28.917Z,1.67
2022-09-05T19:10:59.909Z,1.60
2022-09-05T19:13:33.285Z,1.70
2022-09-05T19:16:42.602Z,1.75
2022-09-05T19:19:15.917Z,1.17
2022-09-05T19:22:05.500Z,1.27
2022-09-05T19:24:45.449Z,1.80
2022-09-05T19:30:28.393Z,1.77
2022-09-05T19:36:58.521Z,1.83
2022-09-05T19:37:05.311Z,1.90
2022-09-05T19:37:06.457Z,1.88
2022-09-05T19:39:23.177Z,1.90
2022-09-05T19:47:25.171Z,2.33
2022-09-05T19:47:36.391Z,1.98
2022-09-05T19:47:55.644Z,2.50
2022-09-05T19:50:22.112Z,2.20
2022-09-05T19:52:53.299Z,2.40
2022-09-05T19:55:24.866Z,1.92
2022-09-05T19:58:19.207Z,2.50
2022-09-05T20:01:00.832Z,2.42
2022-09-05T20:03:38.631Z,2.20
2022-09-05T20:06:30.170Z,2.22
2022-09-05T20:09:10.685Z,3.20
2022-09-05T20:11:46.419Z,2.45
2022-09-05T20:14:23.248Z,2.40
2022-09-05T20:16:53.371Z,2.42
2022-09-05T20:19:30.892Z,2.30
2022-09-05T20:22:12.800Z,2.40
2022-09-05T20:24:51.452Z,2.67
2022-09-05T20:27:27.086Z,2.35
2022-09-05T20:30:00.261Z,2.47
2022-09-05T20:32:39.919Z,2.10
2022-09-05T20:38:20.457Z,2.00
2022-09-05T20:43:24.765Z,2.10
2022-09-05T20:43:28.822Z,2.55
2022-09-05T20:43:59.819Z,2.50
2022-09-05T20:50:34.100Z,2.20
2022-09-05T20:54:14.692Z,2.05
2022-09-05T20:54:22.587Z,2.05
2022-09-05T20:55:41.242Z,2.30
2022-09-05T20:58:12.448Z,2.00
2022-09-05T21:00:46.331Z,2.17
2022-09-05T21:03:36.793Z,2.28
2022-09-05T21:06:23.623Z,2.30
2022-09-05T21:08:56.219Z,2.70
2022-09-05T21:11:33.770Z,2.20
2022-09-05T21:14:04.985Z,2.10
2022-09-05T21:16:36.736Z,2.33
2022-09-05T21:19:05.173Z,2.67
2022-09-05T21:21:35.748Z,2.20
2022-09-05T21:24:18.172Z,2.60
2022-09-05T21:26:50.973Z,2.08
2022-09-05T21:29:27.624Z,2.15
2022-09-05T21:32:08.535Z,2.15
2022-09-05T21:34:45.022Z,2.08
2022-09-05T21:37:15.519Z,2.22
2022-09-05T21:39:59.518Z,2.22
2022-09-05T21:45:35.356Z,1.95
2022-09-05T21:47:50.095Z,2.67
2022-09-05T21:48:08.526Z,2.15
2022-09-05T21:50:41.023Z,2.25
2022-09-05T21:54:31.787Z,2.55
2022-09-05T21:59:22.793Z,2.28
2022-09-05T21:59:29.610Z,2.30
2022-09-05T22:01:52.099Z,2.28
2022-09-05T22:04:22.166Z,1.90
2022-09-05T22:06:53.146Z,2.38
2022-09-05T22:09:23.033Z,2.08
